createdAt,value
2023-05-05T00:01:09.016Z,10.45
2023-05-05T00:03:35.824Z,10.42
2023-05-05T00:06:02.729Z,10.41
2023-05-05T00:08:29.486Z,10.43
2023-05-05T00:10:57.314Z,10.36
2023-05-05T00:13:23.943Z,10.38
2023-05-05T00:15:52.064Z,10.41
2023-05-05T00:18:19.300Z,10.30
2023-05-05T00:20:47.086Z,10.32
2023-05-05T00:23:14.440Z,10.33
2023-05-05T00:25:41.064Z,10.33
2023-05-05T00:28:07.738Z,10.34
2023-05-05T00:30:34.547Z,10.36
2023-05-05T00:33:01.460Z,10.29
2023-05-05T00:35:27.929Z,10.18
2023-05-05T00:37:55.217Z,10.16
2023-05-05T00:40:21.960Z,10.11
2023-05-05T00:42:52.508Z,10.10
2023-05-05T00:45:20.308Z,10.10
2023-05-05T00:47:49.335Z,10.07
2023-05-05T00:50:30.168Z,9.97
2023-05-05T00:53:00.891Z,9.98
2023-05-05T00:55:29.180Z,9.97
2023-05-05T00:57:57.078Z,9.98
2023-05-05T01:00:23.859Z,9.98
2023-05-05T01:02:52.047Z,9.97
2023-05-05T01:05:21.654Z,9.95
2023-05-05T01:08:00.404Z,9.89
2023-05-05T01:10:40.677Z,9.81
2023-05-05T01:13:40.572Z,9.78
2023-05-05T01:16:14.652Z,9.82
2023-05-05T01:19:00.839Z,9.87
2023-05-05T01:21:41.324Z,9.85
2023-05-05T01:24:26.440Z,9.87
2023-05-05T01:27:05.307Z,9.82
2023-05-05T01:29:58.115Z,9.80
2023-05-05T01:32:31.663Z,9.77
2023-05-05T01:35:09.721Z,9.79
2023-05-05T01:38:02.839Z,9.70
2023-05-05T01:40:37.635Z,9.74
2023-05-05T01:43:08.101Z,9.69
2023-05-05T01:45:38.967Z,9.67
2023-05-05T01:48:08.256Z,9.68
2023-05-05T01:50:36.800Z,9.60
2023-05-05T01:53:05.252Z,9.53
2023-05-05T01:55:33.431Z,9.46
2023-05-05T01:58:03.271Z,9.44
2023-05-05T02:00:30.552Z,9.44
2023-05-05T02:02:59.802Z,9.47
2023-05-05T02:05:27.320Z,9.44
2023-05-05T02:07:58.779Z,9.50
2023-05-05T02:10:26.605Z,9.40
2023-05-05T02:12:53.957Z,9.37
2023-05-05T02:15:21.968Z,9.37
2023-05-05T02:17:52.748Z,9.39
2023-05-05T02:20:20.377Z,9.33
2023-05-05T02:22:48.430Z,9.34
2023-05-05T02:25:15.175Z,9.36
2023-05-05T02:27:43.409Z,9.29
2023-05-05T02:30:13.820Z,9.21
2023-05-05T02:32:44.524Z,9.26
2023-05-05T02:35:15.593Z,9.26
2023-05-05T02:37:50.597Z,9.16
2023-05-05T02:40:22.058Z,9.17
2023-05-05T02:42:51.446Z,9.18
2023-05-05T02:45:21.453Z,9.12
2023-05-05T02:47:49.662Z,9.11
2023-05-05T02:50:16.220Z,9.14
2023-05-05T02:52:51.096Z,9.12
2023-05-05T02:55:21.418Z,9.07
2023-05-05T02:58:11.703Z,9.06
2023-05-05T03:00:53.491Z,9.03
2023-05-05T03:03:36.474Z,9.05
2023-05-05T03:06:20.015Z,9.06
2023-05-05T03:09:10.665Z,8.99
2023-05-05T03:11:44.847Z,8.97
2023-05-05T03:14:19.130Z,8.96
2023-05-05T03:16:49.254Z,8.95
2023-05-05T03:19:20.212Z,8.97
2023-05-05T03:21:52.347Z,8.96
2023-05-05T03:24:20.545Z,8.92
2023-05-05T03:27:07.228Z,8.99
2023-05-05T03:29:37.507Z,8.97
2023-05-05T03:32:08.266Z,8.94
2023-05-05T03:34:37.424Z,9.02
2023-05-05T03:37:05.196Z,9.05
2023-05-05T03:39:32.084Z,9.05
2023-05-05T03:41:59.043Z,9.05
2023-05-05T03:44:29.694Z,9.08
2023-05-05T03:46:56.802Z,9.05
2023-05-05T03:49:24.781Z,9.03
2023-05-05T03:51:52.095Z,9.02
2023-05-05T03:54:18.748Z,9.02
2023-05-05T03:56:45.365Z,9.03
2023-05-05T03:59:12.006Z,9.02
2023-05-05T04:01:38.726Z,9.00
2023-05-05T04:04:05.566Z,8.99
2023-05-05T04:06:32.218Z,9.00
2023-05-05T04:08:58.718Z,8.95
2023-05-05T04:11:26.124Z,8.89
2023-05-05T04:13:54.247Z,8.97
2023-05-05T04:16:21.259Z,8.94
2023-05-05T04:18:48.052Z,8.95
2023-05-05T04:21:14.532Z,8.86
2023-05-05T04:23:41.267Z,8.89
2023-05-05T04:26:07.703Z,8.85
2023-05-05T04:28:34.244Z,8.80
2023-05-05T04:31:01.381Z,8.84
2023-05-05T04:33:30.912Z,8.83
2023-05-05T04:35:58.258Z,8.79
2023-05-05T04:38:24.973Z,8.80
2023-05-05T04:40:51.436Z,8.88
2023-05-05T04:43:17.935Z,8.86
2023-05-05T04:45:54.750Z,8.89
2023-05-05T04:48:24.521Z,8.87
2023-05-05T04:50:51.715Z,8.95
2023-05-05T04:53:18.278Z,9.01
2023-05-05T04:55:44.815Z,9.12
2023-05-05T04:58:11.355Z,9.17
2023-05-05T05:00:38.560Z,9.18
2023-05-05T05:03:05.168Z,9.28
2023-05-05T05:05:31.652Z,9.38
2023-05-05T05:07:58.173Z,9.45
2023-05-05T05:10:24.687Z,9.51
2023-05-05T05:12:51.224Z,9.53
2023-05-05T05:15:17.686Z,9.52
2023-05-05T05:17:44.474Z,9.52
2023-05-05T05:20:12.011Z,9.60
2023-05-05T05:22:39.062Z,9.67
2023-05-05T05:25:09.298Z,9.58
2023-05-05T05:27:36.428Z,9.52
2023-05-05T05:30:03.170Z,9.52
2023-05-05T05:32:31.063Z,9.47
2023-05-05T05:34:57.716Z,9.51
2023-05-05T05:37:24.536Z,9.55
2023-05-05T05:39:52.076Z,9.49
2023-05-05T05:42:20.049Z,9.59
2023-05-05T05:44:46.623Z,9.71
2023-05-05T05:47:13.696Z,9.90
2023-05-05T05:49:40.191Z,10.10
2023-05-05T05:52:06.900Z,10.29
2023-05-05T05:54:35.501Z,10.52
2023-05-05T05:57:04.269Z,10.59
2023-05-05T05:59:30.820Z,10.65
2023-05-05T06:01:57.374Z,10.89
2023-05-05T06:04:24.225Z,11.04
2023-05-05T06:06:50.805Z,11.14
2023-05-05T06:09:17.355Z,11.17
2023-05-05T06:11:43.932Z,11.07
2023-05-05T06:14:10.573Z,11.05
2023-05-05T06:16:37.179Z,10.92
2023-05-05T06:19:09.703Z,10.97
2023-05-05T06:21:37.614Z,11.16
2023-05-05T06:24:04.645Z,11.38
2023-05-05T06:26:32.011Z,11.43
2023-05-05T06:28:58.567Z,11.54
2023-05-05T06:31:25.193Z,11.45
2023-05-05T06:33:51.758Z,11.50
2023-05-05T06:36:18.247Z,11.33
2023-05-05T06:38:44.736Z,11.47
2023-05-05T06:41:11.428Z,11.66
2023-05-05T06:43:37.976Z,11.85
2023-05-05T06:46:07.954Z,11.92
2023-05-05T06:48:34.662Z,12.06
2023-05-05T06:51:01.239Z,12.15
2023-05-05T06:53:27.696Z,11.89
2023-05-05T06:55:54.176Z,11.77
2023-05-05T06:58:21.518Z,11.78
2023-05-05T07:00:48.326Z,11.87
2023-05-05T07:03:15.082Z,11.79
2023-05-05T07:05:42.022Z,11.80
2023-05-05T07:08:09.825Z,11.76
2023-05-05T07:10:36.264Z,11.80
2023-05-05T07:13:02.808Z,11.77
2023-05-05T07:15:29.918Z,11.79
2023-05-05T07:17:57.170Z,11.77
2023-05-05T07:20:24.332Z,11.77
2023-05-05T07:22:51.038Z,11.84
2023-05-05T07:25:17.513Z,11.83
2023-05-05T07:27:44.269Z,11.88
2023-05-05T07:30:14.732Z,11.94
2023-05-05T07:32:44.020Z,12.05
2023-05-05T07:35:10.776Z,12.10
2023-05-05T07:37:37.532Z,12.09
2023-05-05T07:40:04.309Z,12.16
2023-05-05T07:42:30.876Z,12.30
2023-05-05T07:44:57.307Z,12.48
2023-05-05T07:47:24.043Z,12.48
2023-05-05T07:49:50.966Z,12.60
2023-05-05T07:52:17.435Z,12.67
2023-05-05T07:54:45.150Z,12.75
2023-05-05T07:57:11.826Z,12.88
2023-05-05T07:59:41.006Z,13.01
2023-05-05T08:02:07.670Z,13.12
2023-05-05T08:04:34.132Z,13.21
2023-05-05T08:07:00.679Z,13.24
2023-05-05T08:09:27.170Z,13.33
2023-05-05T08:11:53.649Z,13.51
2023-05-05T08:14:20.075Z,13.79
2023-05-05T08:16:46.644Z,14.33
2023-05-05T08:19:27.639Z,14.79
2023-05-05T08:21:56.169Z,15.15
2023-05-05T08:24:22.708Z,15.12
2023-05-05T08:26:49.302Z,15.07
2023-05-05T08:29:15.719Z,14.98
2023-05-05T08:31:42.411Z,15.30
2023-05-05T08:34:08.885Z,15.42
2023-05-05T08:36:35.437Z,15.48
2023-05-05T08:39:01.994Z,15.01
2023-05-05T08:41:28.807Z,14.80
2023-05-05T08:43:56.206Z,14.70
2023-05-05T08:46:24.389Z,14.82
2023-05-05T08:48:55.436Z,14.96
2023-05-05T08:51:23.137Z,14.94
2023-05-05T08:53:55.777Z,15.12
2023-05-05T08:56:22.493Z,15.08
2023-05-05T08:58:50.614Z,15.30
2023-05-05T09:01:18.194Z,15.31
2023-05-05T09:03:46.133Z,15.35
2023-05-05T09:06:13.038Z,15.06
2023-05-05T09:08:40.014Z,15.12
2023-05-05T09:11:06.593Z,15.13
2023-05-05T09:13:33.047Z,14.95
2023-05-05T09:16:00.147Z,14.80
2023-05-05T09:18:26.804Z,15.00
2023-05-05T09:20:53.285Z,15.02
2023-05-05T09:23:20.846Z,15.03
2023-05-05T09:26:03.845Z,15.15
2023-05-05T09:28:30.420Z,15.21
2023-05-05T09:31:12.404Z,14.98
2023-05-05T09:33:39.292Z,14.73
2023-05-05T09:36:06.233Z,14.59
2023-05-05T09:38:34.539Z,14.44
2023-05-05T09:41:01.123Z,14.41
2023-05-05T09:43:27.557Z,14.28
2023-05-05T09:46:07.354Z,14.23
2023-05-05T09:48:33.928Z,14.14
2023-05-05T09:51:00.652Z,14.16
2023-05-05T09:53:38.141Z,14.29
2023-05-05T09:56:04.993Z,14.33
2023-05-05T09:58:31.619Z,14.35
2023-05-05T10:00:59.289Z,14.46
2023-05-05T10:03:26.290Z,14.59
2023-05-05T10:05:58.876Z,14.75
2023-05-05T10:08:27.675Z,14.83
2023-05-05T10:11:00.396Z,14.96
2023-05-05T10:13:27.889Z,14.96
2023-05-05T10:15:56.788Z,15.04
2023-05-05T10:18:25.267Z,15.06
2023-05-05T10:20:57.465Z,15.08
2023-05-05T10:23:28.093Z,15.17
2023-05-05T10:26:02.319Z,15.21
2023-05-05T10:28:32.793Z,15.28
2023-05-05T10:31:02.183Z,15.38
2023-05-05T10:33:35.608Z,15.48
2023-05-05T10:36:05.202Z,15.54
2023-05-05T10:38:32.340Z,15.72
2023-05-05T10:41:03.066Z,15.91
2023-05-05T10:43:31.277Z,16.12
2023-05-05T10:45:59.155Z,16.31
2023-05-05T10:48:33.036Z,16.40
2023-05-05T10:51:12.647Z,16.46
2023-05-05T10:53:49.623Z,16.47
2023-05-05T10:56:26.662Z,16.30
2023-05-05T10:59:00.037Z,16.30
2023-05-05T11:01:34.946Z,16.13
2023-05-05T11:04:17.871Z,16.12
2023-05-05T11:07:13.424Z,16.21
2023-05-05T11:10:04.232Z,16.33
2023-05-05T11:12:32.110Z,16.35
2023-05-05T11:15:23.619Z,16.29
2023-05-05T11:17:50.122Z,16.23
2023-05-05T11:20:16.934Z,16.30
2023-05-05T11:23:05.322Z,16.35
2023-05-05T11:25:34.885Z,16.25
2023-05-05T11:28:13.190Z,16.29
2023-05-05T11:30:54.778Z,16.23
2023-05-05T11:33:38.215Z,16.23
2023-05-05T11:36:12.813Z,16.23
2023-05-05T11:38:39.370Z,16.16
2023-05-05T11:41:13.694Z,16.12
2023-05-05T11:43:41.763Z,16.04
2023-05-05T11:46:15.423Z,16.04
2023-05-05T11:48:45.981Z,15.95
2023-05-05T11:51:13.616Z,15.89
2023-05-05T11:53:45.466Z,15.84
2023-05-05T11:56:21.848Z,15.83
2023-05-05T11:58:49.605Z,15.70
2023-05-05T12:01:16.622Z,15.79
2023-05-05T12:03:45.883Z,15.87
2023-05-05T12:06:12.943Z,15.96
2023-05-05T12:08:40.813Z,16.02
2023-05-05T12:11:09.625Z,15.88
2023-05-05T12:13:36.139Z,15.83
2023-05-05T12:16:13.207Z,15.75
2023-05-05T12:18:40.982Z,15.79
2023-05-05T12:21:20.608Z,15.87
2023-05-05T12:23:47.167Z,15.88
2023-05-05T12:26:31.598Z,16.05
2023-05-05T12:29:01.185Z,16.10
2023-05-05T12:31:42.825Z,16.16
2023-05-05T12:34:10.675Z,16.25
2023-05-05T12:36:37.977Z,16.28
2023-05-05T12:39:05.404Z,16.16
2023-05-05T12:41:32.655Z,16.24
2023-05-05T12:44:00.608Z,16.26
2023-05-05T12:46:29.688Z,16.29
2023-05-05T12:49:06.463Z,16.27
2023-05-05T12:51:37.378Z,16.17
2023-05-05T12:54:06.376Z,16.19
2023-05-05T12:56:40.542Z,16.23
2023-05-05T12:59:09.039Z,16.31
2023-05-05T13:01:37.557Z,16.33
2023-05-05T13:04:10.707Z,16.50
2023-05-05T13:06:38.339Z,16.56
2023-05-05T13:09:05.998Z,16.60
2023-05-05T13:11:39.454Z,16.73
2023-05-05T13:14:06.915Z,16.87
2023-05-05T13:16:33.915Z,16.83
2023-05-05T13:19:00.465Z,16.99
2023-05-05T13:21:27.973Z,16.94
2023-05-05T13:23:55.952Z,16.88
2023-05-05T13:26:28.319Z,17.00
2023-05-05T13:28:54.948Z,17.04
2023-05-05T13:31:22.693Z,17.10
2023-05-05T13:33:49.224Z,16.91
2023-05-05T13:36:15.825Z,16.95
2023-05-05T13:38:42.449Z,16.91
2023-05-05T13:41:08.851Z,16.76
2023-05-05T13:43:35.309Z,16.74
2023-05-05T13:46:16.108Z,16.67
2023-05-05T13:48:46.111Z,16.89
2023-05-05T13:51:13.215Z,16.97
2023-05-05T13:53:43.720Z,17.48
2023-05-05T13:56:10.660Z,17.56
2023-05-05T13:58:37.986Z,17.44
2023-05-05T14:01:04.583Z,17.30
2023-05-05T14:03:31.506Z,17.16
2023-05-05T14:05:58.058Z,16.92
2023-05-05T14:08:24.614Z,16.76
2023-05-05T14:10:52.168Z,16.81
2023-05-05T14:13:19.181Z,16.75
2023-05-05T14:15:45.862Z,16.71
2023-05-05T14:18:12.303Z,16.66
2023-05-05T14:20:38.774Z,16.64
2023-05-05T14:23:05.668Z,16.70
2023-05-05T14:25:32.368Z,16.84
2023-05-05T14:27:58.831Z,17.00
2023-05-05T14:30:25.608Z,16.79
2023-05-05T14:32:52.381Z,16.70
2023-05-05T14:35:18.827Z,16.64
2023-05-05T14:37:45.417Z,16.49
2023-05-05T14:40:11.985Z,16.43
2023-05-05T14:42:38.747Z,16.08
2023-05-05T14:45:06.353Z,16.03
2023-05-05T14:47:33.651Z,16.07
2023-05-05T14:50:00.268Z,15.99
2023-05-05T14:52:26.984Z,15.96
2023-05-05T14:54:53.412Z,15.97
2023-05-05T14:57:19.922Z,15.90
2023-05-05T14:59:46.379Z,15.99
2023-05-05T15:02:13.122Z,15.93
2023-05-05T15:04:39.553Z,15.96
2023-05-05T15:07:06.028Z,15.97
2023-05-05T15:09:32.430Z,16.11
2023-05-05T15:11:59.229Z,16.19
2023-05-05T15:14:26.512Z,16.31
2023-05-05T15:16:52.966Z,16.45
2023-05-05T15:19:19.375Z,16.54
2023-05-05T15:21:52.957Z,16.62
2023-05-05T15:24:20.737Z,16.81
2023-05-05T15:26:47.276Z,16.78
2023-05-05T15:29:13.765Z,16.59
2023-05-05T15:31:40.382Z,16.39
2023-05-05T15:34:06.945Z,16.28
2023-05-05T15:36:33.536Z,16.13
2023-05-05T15:38:59.981Z,16.16
2023-05-05T15:41:29.257Z,16.08
2023-05-05T15:43:55.797Z,15.94
2023-05-05T15:46:22.435Z,15.87
2023-05-05T15:48:48.885Z,15.84
2023-05-05T15:51:15.419Z,15.89
2023-05-05T15:53:41.835Z,15.82
2023-05-05T15:56:08.357Z,15.83
2023-05-05T15:58:34.824Z,15.73
2023-05-05T16:01:01.477Z,15.72
2023-05-05T16:03:28.085Z,15.74
2023-05-05T16:05:54.835Z,15.73
2023-05-05T16:08:21.262Z,15.78
2023-05-05T16:10:47.848Z,15.86
2023-05-05T16:13:14.374Z,15.78
2023-05-05T16:15:40.967Z,15.74
2023-05-05T16:18:07.470Z,15.70
2023-05-05T16:20:34.225Z,15.68
2023-05-05T16:23:00.763Z,15.56
2023-05-05T16:25:27.266Z,15.39
2023-05-05T16:27:56.539Z,15.27
2023-05-05T16:30:23.281Z,15.28
2023-05-05T16:32:51.651Z,15.19
2023-05-05T16:35:18.346Z,15.11
2023-05-05T16:37:44.835Z,15.11
2023-05-05T16:40:12.003Z,15.09
2023-05-05T16:42:38.434Z,15.06
2023-05-05T16:45:06.805Z,14.98
2023-05-05T16:47:33.493Z,14.96
2023-05-05T16:50:00.053Z,14.92
2023-05-05T16:52:26.599Z,14.88
2023-05-05T16:54:55.781Z,14.89
2023-05-05T16:57:23.413Z,14.80
2023-05-05T16:59:50.275Z,14.78
2023-05-05T17:02:16.917Z,14.66
2023-05-05T17:04:43.568Z,14.68
2023-05-05T17:07:09.992Z,14.59
2023-05-05T17:09:36.465Z,14.46
2023-05-05T17:12:04.291Z,14.40
2023-05-05T17:14:31.179Z,14.35
2023-05-05T17:16:57.802Z,14.39
2023-05-05T17:19:24.357Z,14.36
2023-05-05T17:21:50.788Z,14.26
2023-05-05T17:24:17.351Z,14.19
2023-05-05T17:26:44.081Z,14.01
2023-05-05T17:29:12.925Z,13.98
2023-05-05T17:31:39.657Z,13.90
2023-05-05T17:34:06.268Z,13.85
2023-05-05T17:36:33.522Z,13.86
2023-05-05T17:39:00.067Z,13.85
2023-05-05T17:41:27.024Z,13.81
2023-05-05T17:43:53.464Z,13.74
2023-05-05T17:46:19.992Z,13.72
2023-05-05T17:48:46.644Z,13.61
2023-05-05T17:51:13.263Z,13.62
2023-05-05T17:53:39.917Z,13.55
2023-05-05T17:56:08.692Z,13.56
2023-05-05T17:58:35.585Z,13.37
2023-05-05T18:01:02.437Z,13.31
2023-05-05T18:03:29.172Z,13.18
2023-05-05T18:05:56.070Z,12.91
2023-05-05T18:08:23.141Z,12.89
2023-05-05T18:10:49.708Z,12.91
2023-05-05T18:13:16.212Z,12.76
2023-05-05T18:15:42.772Z,12.69
2023-05-05T18:18:09.288Z,12.62
2023-05-05T18:20:35.953Z,12.62
2023-05-05T18:23:02.364Z,12.55
2023-05-05T18:25:29.194Z,12.52
2023-05-05T18:27:55.631Z,12.48
2023-05-05T18:30:22.142Z,12.36
2023-05-05T18:32:48.773Z,12.34
2023-05-05T18:35:15.540Z,12.36
2023-05-05T18:37:42.214Z,12.44
2023-05-05T18:40:10.158Z,12.41
2023-05-05T18:42:36.618Z,12.43
2023-05-05T18:45:03.302Z,12.49
2023-05-05T18:47:29.832Z,12.47
2023-05-05T18:49:56.410Z,12.36
2023-05-05T18:52:22.924Z,12.48
2023-05-05T18:54:49.405Z,12.37
2023-05-05T18:57:15.838Z,12.33
2023-05-05T18:59:42.513Z,12.34
2023-05-05T19:02:08.969Z,12.35
2023-05-05T19:04:37.819Z,12.40
2023-05-05T19:07:04.898Z,12.37
2023-05-05T19:09:31.697Z,12.32
2023-05-05T19:11:58.132Z,12.18
2023-05-05T19:14:24.921Z,12.25
2023-05-05T19:16:51.925Z,12.15
2023-05-05T19:19:18.728Z,12.13
2023-05-05T19:21:45.140Z,12.08
2023-05-05T19:24:11.665Z,12.01
2023-05-05T19:26:38.088Z,11.94
2023-05-05T19:29:04.863Z,11.97
2023-05-05T19:31:31.683Z,11.85
2023-05-05T19:34:03.908Z,11.77
2023-05-05T19:36:31.666Z,11.81
2023-05-05T19:39:03.935Z,11.73
2023-05-05T19:41:31.034Z,11.74
2023-05-05T19:43:57.754Z,11.64
2023-05-05T19:46:27.427Z,11.66
2023-05-05T19:48:54.091Z,11.67
2023-05-05T19:51:20.570Z,11.66
2023-05-05T19:53:47.275Z,11.58
2023-05-05T19:56:13.961Z,11.55
2023-05-05T19:58:57.801Z,11.38
2023-05-05T20:01:25.151Z,11.20
2023-05-05T20:03:54.406Z,11.13
2023-05-05T20:06:21.475Z,11.11
2023-05-05T20:08:48.067Z,11.03
2023-05-05T20:11:15.748Z,11.05
2023-05-05T20:13:43.069Z,10.96
2023-05-05T20:16:10.097Z,10.87
2023-05-05T20:18:36.688Z,10.86
2023-05-05T20:21:03.438Z,10.76
2023-05-05T20:23:30.340Z,10.64
2023-05-05T20:25:56.732Z,10.56
2023-05-05T20:28:23.949Z,10.58
2023-05-05T20:30:50.484Z,10.41
2023-05-05T20:33:16.976Z,10.40
2023-05-05T20:35:43.374Z,10.51
2023-05-05T20:38:10.143Z,10.27
2023-05-05T20:40:36.963Z,10.20
2023-05-05T20:43:03.698Z,10.15
2023-05-05T20:45:31.690Z,10.11
2023-05-05T20:48:00.465Z,10.08
2023-05-05T20:50:26.965Z,10.02
2023-05-05T20:52:53.442Z,10.03
2023-05-05T20:55:20.060Z,10.06
2023-05-05T20:57:47.039Z,10.06
2023-05-05T21:00:14.022Z,10.02
2023-05-05T21:02:40.733Z,10.01
2023-05-05T21:05:07.460Z,9.97
2023-05-05T21:07:34.476Z,10.02
2023-05-05T21:10:02.433Z,9.93
2023-05-05T21:12:29.792Z,9.89
2023-05-05T21:14:58.466Z,9.84
2023-05-05T21:17:29.176Z,9.85
2023-05-05T21:19:56.118Z,9.81
2023-05-05T21:22:23.001Z,9.86
2023-05-05T21:24:49.416Z,9.82
2023-05-05T21:27:16.166Z,9.74
2023-05-05T21:29:42.606Z,9.72
2023-05-05T21:32:10.996Z,9.80
2023-05-05T21:34:38.853Z,9.87
2023-05-05T21:37:06.468Z,9.78
2023-05-05T21:39:33.460Z,9.78
2023-05-05T21:42:00.569Z,9.77
2023-05-05T21:44:28.068Z,9.84
2023-05-05T21:46:55.619Z,9.77
2023-05-05T21:49:22.211Z,9.62
2023-05-05T21:51:48.950Z,9.65
2023-05-05T21:54:15.773Z,9.56
2023-05-05T21:56:42.430Z,9.67
2023-05-05T21:59:08.952Z,9.56
2023-05-05T22:01:35.762Z,9.59
2023-05-05T22:04:02.425Z,9.60
2023-05-05T22:06:29.294Z,9.59
2023-05-05T22:08:56.829Z,9.63
2023-05-05T22:11:23.644Z,9.61
2023-05-05T22:13:50.132Z,9.67
2023-05-05T22:16:19.763Z,9.57
2023-05-05T22:18:46.724Z,9.60
2023-05-05T22:21:13.212Z,9.56
2023-05-05T22:23:41.696Z,9.57
2023-05-05T22:26:08.902Z,9.63
2023-05-05T22:28:35.726Z,9.70
2023-05-05T22:31:02.270Z,9.78
2023-05-05T22:33:28.888Z,9.66
2023-05-05T22:35:55.662Z,9.63
2023-05-05T22:38:22.266Z,9.63
2023-05-05T22:40:49.790Z,9.57
2023-05-05T22:43:16.267Z,9.58
2023-05-05T22:45:43.721Z,9.55
2023-05-05T22:48:10.288Z,9.50
2023-05-05T22:50:37.458Z,9.47
2023-05-05T22:53:04.089Z,9.49
2023-05-05T22:55:30.886Z,9.51
2023-05-05T22:57:57.337Z,9.53
2023-05-05T23:00:24.146Z,9.40
2023-05-05T23:02:50.942Z,9.37
2023-05-05T23:05:17.383Z,9.43
2023-05-05T23:07:44.165Z,9.41
2023-05-05T23:10:10.956Z,9.37
2023-05-05T23:12:37.684Z,9.37
2023-05-05T23:15:04.982Z,9.26
2023-05-05T23:17:31.552Z,9.30
2023-05-05T23:19:58.006Z,9.39
2023-05-05T23:22:24.588Z,9.33
2023-05-05T23:24:51.023Z,9.34
2023-05-05T23:27:17.740Z,9.35
2023-05-05T23:29:44.172Z,9.30
2023-05-05T23:32:10.723Z,9.32
2023-05-05T23:34:37.180Z,9.27
2023-05-05T23:37:06.085Z,9.28
2023-05-05T23:39:35.774Z,9.38
2023-05-05T23:42:02.343Z,9.30
2023-05-05T23:44:28.864Z,9.36
2023-05-05T23:46:55.445Z,9.21
2023-05-05T23:49:22.100Z,9.22
2023-05-05T23:51:48.536Z,9.31
2023-05-05T23:54:14.948Z,9.18
2023-05-05T23:56:42.682Z,9.16
2023-05-05T23:59:09.215Z,9.22
